Saint Petersburg, FL (33706)

7:42 PM EDT on August 26, 2016 (GMT -0400)
Saint Pete Beach | | Change Station

Elev 9 ft 27.74 °N, 82.75 °W | Updated 2 minutes ago

Thunderstorm
Thunderstorm
78.0 °F
Feels Like 81 °F
N
2.2
Wind Variable Wind from NW
Gusts 6.9 mph

Today
High -- | Low -- °F
--% Chance of Precip.
Yesterday
High -- | Low -- °F
Precip. -- in
Pressure 29.94 in
Visibility 10.0 miles
Clouds Few 2800 ft
Mostly Cloudy 6000 ft
Overcast 7500 ft
Heat Index 81 °F
Dew Point 78 °F
Humidity 99%
Rainfall 0.41 in
Snow Depth Not available.
7:07 AM 7:57 PM
Waning Crescent, 30% visible
SPECI KSPG 262339Z 32004KT 10SM TS FEW028 BKN060 OVC075 27/24 A2994 RMK AO2 LTG DSNT SW AND NW RAB05E20 TSB10 P0001 T02720239
Pressure 29.94 in
Visibility 10.0 miles
Clouds Few 2800 ft
Mostly Cloudy 6000 ft
Overcast 7500 ft
Heat Index 81 °F
Dew Point 78 °F
Humidity 99%
Rainfall 0.41 in
Snow Depth Not available.
7:07 AM 7:57 PM
Waning Crescent, 30% visible
SPECI KSPG 262339Z 32004KT 10SM TS FEW028 BKN060 OVC075 27/24 A2994 RMK AO2 LTG DSNT SW AND NW RAB05E20 TSB10 P0001 T02720239

10-Day Weather Forecast

Almanac

Astronomy

Aug. 26, 2016 Rise Set
Actual Time
Civil Twilight
Nautical Twilight
Astronomical Twilight
Moon
Length of Visible Light
Length of Day
Tomorrow will be .
, % of the Moon is Illuminated

Today's Extremes

State Highs State Lows

Community

WunderPhotos

Upload Photos

1,935,255 photos uploaded!

WunderBlog® & News

Nearby

Air Quality

  Air Quality AQ Index Pollutant
Not available.

Snow Depth

Station Depth Elevation

Earthquake Activity

City Distance Mag. Time & Date
Minimum magnitude displayed is 2.5.

Coastal Water Temperatures

Place Temperature

Stations

Nearby Weather Stations

Station Location Temp. Windchill Dew Point Humidity Wind Precip. Elev Updated Type
                   

Watches & Warnings

There are currently no watches in effect.